Time;durP1;ratioP1;P1;durP2;ratioP2;P2;SDS_P1;SDS_P2;PMS_P1;PMS_P2;Temp;Humidity;BMP_temperature;BMP_pressure;BME280_temperature;BME280_humidity;BME280_pressure;Samples;Min_cycle;Max_cycle;Signal;HPM_P1;HPM_P2
2023/02/06 00:00:22;;;;;;;26.20;4.10;;;;;;;4.72;71.99;102336.56;5029718;28;20060;-81
2023/02/06 00:02:49;;;;;;;21.65;4.85;;;;;;;4.71;71.85;102340.00;5029891;28;20056;-79
2023/02/06 00:05:16;;;;;;;21.33;3.83;;;;;;;4.69;72.26;102336.50;5029667;28;20073;-82
2023/02/06 00:07:42;;;;;;;30.48;4.15;;;;;;;4.66;71.95;102334.75;5030276;28;20080;-82
2023/02/06 00:10:09;;;;;;;24.58;4.65;;;;;;;4.65;71.97;102330.41;5033300;28;20053;-81
2023/02/06 00:12:35;;;;;;;23.55;4.22;;;;;;;4.64;72.09;102335.59;5033247;28;20053;-81
2023/02/06 00:15:02;;;;;;;31.65;4.90;;;;;;;4.62;72.31;102329.47;5033437;28;20291;-82
2023/02/06 00:17:28;;;;;;;23.27;4.40;;;;;;;4.61;72.46;102326.03;5033148;28;20045;-82
2023/02/06 00:19:55;;;;;;;21.30;4.30;;;;;;;4.60;72.78;102319.03;5015484;28;20053;-82
2023/02/06 00:22:21;;;;;;;32.58;3.65;;;;;;;4.60;72.25;102321.63;5033293;28;20053;-82
2023/02/06 00:24:48;;;;;;;24.05;4.72;;;;;;;4.59;72.24;102314.69;5033228;28;20049;-80
2023/02/06 00:27:14;;;;;;;31.15;4.60;;;;;;;4.58;72.20;102312.94;5032981;28;20049;-81
2023/02/06 00:29:40;;;;;;;25.42;4.20;;;;;;;4.56;72.19;102307.69;5033107;28;20395;-81
2023/02/06 00:32:07;;;;;;;20.58;4.07;;;;;;;4.55;72.13;102303.34;5032984;28;20042;-82
2023/02/06 00:34:33;;;;;;;26.95;4.43;;;;;;;4.54;72.12;102293.78;5033387;28;20061;-81
2023/02/06 00:37:00;;;;;;;35.67;5.15;;;;;;;4.52;72.50;102287.66;5032929;28;20045;-82
2023/02/06 00:39:26;;;;;;;22.15;3.67;;;;;;;4.51;72.17;102288.53;5032999;28;20081;-81
2023/02/06 00:41:54;;;;;;;20.83;4.13;;;;;;;4.51;72.26;102298.06;5032884;28;20096;-81
2023/02/06 00:44:21;;;;;;;25.27;4.35;;;;;;;4.49;72.26;102298.06;5032858;28;20060;-81
2023/02/06 00:46:48;;;;;;;32.08;4.57;;;;;;;4.48;72.15;102305.91;5032369;28;20087;-81
2023/02/06 00:49:15;;;;;;;20.17;4.07;;;;;;;4.47;72.14;102314.56;5032774;28;20088;-81
2023/02/06 00:51:41;;;;;;;18.17;3.20;;;;;;;4.45;72.23;102313.69;5032884;28;20049;-81
2023/02/06 00:54:08;;;;;;;21.48;4.43;;;;;;;4.44;72.24;102307.56;5032817;28;20057;-82
2023/02/06 00:56:35;;;;;;;28.95;4.90;;;;;;;4.41;72.04;102300.59;5032508;28;20054;-81
2023/02/06 00:59:01;;;;;;;25.58;3.70;;;;;;;4.41;72.35;102299.75;5032346;28;20053;-82
2023/02/06 01:01:28;;;;;;;17.08;3.42;;;;;;;4.41;72.28;102310.19;5032533;28;20073;-81
2023/02/06 01:03:54;;;;;;;20.27;3.75;;;;;;;4.40;72.45;102308.41;5032515;28;20111;-79
2023/02/06 01:06:21;;;;;;;28.00;3.53;;;;;;;4.39;72.51;102314.47;5032551;28;20103;-81
2023/02/06 01:08:47;;;;;;;18.02;3.17;;;;;;;4.37;72.38;102314.47;5032095;28;20050;-81
2023/02/06 01:11:18;;;;;;;27.52;4.35;;;;;;;4.36;72.61;102314.44;5032655;28;20411;-81
2023/02/06 01:13:44;;;;;;;24.80;4.57;;;;;;;4.35;72.63;102310.09;5032168;28;20056;-79
2023/02/06 01:16:14;;;;;;;21.98;4.07;;;;;;;4.34;72.58;102318.78;5031969;28;20060;-83
2023/02/06 01:18:41;;;;;;;20.10;4.60;;;;;;;4.33;72.12;102310.06;5031709;28;20136;-81
2023/02/06 01:21:14;;;;;;;24.65;4.07;;;;;;;4.30;72.43;102310.91;5014271;28;20146;-81
2023/02/06 01:23:41;;;;;;;23.27;3.63;;;;;;;4.32;72.52;102315.25;5032347;28;20049;-82
2023/02/06 01:26:11;;;;;;;28.95;4.53;;;;;;;4.30;72.52;102313.53;4997599;28;20053;-82
2023/02/06 01:28:40;;;;;;;22.52;5.10;;;;;;;4.30;72.64;102315.28;5012294;28;20045;-82
2023/02/06 01:31:15;;;;;;;26.42;4.07;;;;;;;4.27;72.43;102316.09;5012443;28;20050;-82
2023/02/06 01:33:44;;;;;;;22.70;3.95;;;;;;;4.28;72.40;102315.25;5012251;28;20068;-81
2023/02/06 01:36:12;;;;;;;25.48;3.50;;;;;;;4.27;72.40;102312.63;5012045;28;20053;-81
2023/02/06 01:38:40;;;;;;;24.92;3.55;;;;;;;4.27;72.77;102312.63;5012134;28;20116;-81
2023/02/06 01:41:08;;;;;;;20.27;4.53;;;;;;;4.25;72.61;102315.22;5011977;28;20525;-81
2023/02/06 01:43:39;;;;;;;23.30;4.57;;;;;;;4.24;72.61;102313.47;5012064;28;20057;-81
2023/02/06 01:46:06;;;;;;;29.38;4.78;;;;;;;4.22;72.48;102299.53;5011988;28;20061;-83
2023/02/06 01:48:41;;;;;;;26.45;4.20;;;;;;;4.19;72.44;102302.13;5011936;28;20058;-81
2023/02/06 01:51:15;;;;;;;19.05;4.03;;;;;;;4.19;72.46;102304.72;4994364;28;20077;-82
2023/02/06 01:53:44;;;;;;;25.38;4.63;;;;;;;4.19;72.63;102306.44;5011890;28;20450;-82
2023/02/06 01:56:12;;;;;;;20.10;4.03;;;;;;;4.16;72.40;102302.94;4994190;28;20068;-82
2023/02/06 01:58:43;;;;;;;21.92;4.20;;;;;;;4.13;72.27;102299.44;5011629;28;20486;-82
2023/02/06 02:01:10;;;;;;;26.63;4.57;;;;;;;4.12;72.28;102303.75;5011902;28;20141;-81
2023/02/06 02:03:40;;;;;;;15.73;3.95;;;;;;;4.09;72.35;102303.75;5011522;28;20100;-81
2023/02/06 02:06:11;;;;;;;20.50;4.20;;;;;;;4.08;72.27;102311.53;5011305;28;20450;-81
2023/02/06 02:08:43;;;;;;;26.20;4.70;;;;;;;4.05;72.60;102309.78;5011539;28;20053;-81
2023/02/06 02:11:16;;;;;;;23.08;4.07;;;;;;;4.04;72.37;102308.91;5012005;28;20100;-82
2023/02/06 02:13:42;;;;;;;19.20;3.40;;;;;;;4.06;72.56;102310.63;5011576;28;20132;-83
2023/02/06 02:16:26;;;;;;;24.70;3.92;;;;;;;4.01;73.00;102311.47;5011566;28;20045;-82
2023/02/06 02:19:02;;;;;;;15.02;3.55;;;;;;;4.02;72.91;102310.63;5010227;28;20112;-82
2023/02/06 02:21:44;;;;;;;19.83;4.22;;;;;;;4.01;72.84;102303.63;5011322;28;20053;-82
2023/02/06 02:24:19;;;;;;;16.05;3.45;;;;;;;4.03;72.49;102298.44;5013494;28;20681;-82
2023/02/06 02:27:05;;;;;;;24.02;4.18;;;;;;;3.98;72.46;102306.22;5030686;28;20057;-81
2023/02/06 02:30:04;;;;;;;18.80;4.03;;;;;;;3.96;72.68;102288.84;5030796;28;20502;-82
2023/02/06 02:32:49;;;;;;;26.70;4.75;;;;;;;3.97;72.65;102275.81;5013510;28;20140;-83
2023/02/06 02:35:34;;;;;;;26.25;4.38;;;;;;;3.94;73.12;102281.00;5012595;28;20076;-82
2023/02/06 02:38:24;;;;;;;25.02;5.40;;;;;;;3.94;73.22;102288.81;5030768;28;20509;-82
2023/02/06 02:41:03;;;;;;;20.50;3.70;;;;;;;3.95;73.09;102285.34;5013305;28;20061;-83
2023/02/06 02:43:32;;;;;;;12.70;3.33;;;;;;;3.96;73.47;102276.66;5030798;28;20056;-82
2023/02/06 02:46:16;;;;;;;18.80;4.07;;;;;;;3.95;73.68;102282.72;5030720;28;20053;-82
2023/02/06 02:48:47;;;;;;;23.83;3.88;;;;;;;4.00;73.49;102282.78;5013239;28;20051;-82
2023/02/06 02:51:14;;;;;;;17.90;4.10;;;;;;;4.00;73.46;102283.66;5030776;28;20143;-81
2023/02/06 02:53:40;;;;;;;28.52;4.25;;;;;;;4.00;73.22;102283.66;5030703;28;20077;-82
2023/02/06 02:56:21;;;;;;;23.00;4.35;;;;;;;3.98;73.26;102295.81;5030323;28;20049;-83
2023/02/06 02:58:56;;;;;;;23.65;4.47;;;;;;;4.01;72.91;102289.75;5030667;28;20058;-81
2023/02/06 03:01:28;;;;;;;21.48;3.40;;;;;;;4.00;72.74;102301.03;5012941;28;20049;-82
2023/02/06 03:03:59;;;;;;;15.98;4.10;;;;;;;4.01;73.27;102302.78;5030556;28;20061;-82
2023/02/06 03:06:49;;;;;;;33.83;4.13;;;;;;;3.98;73.32;102306.22;5030313;28;20050;-81
2023/02/06 03:09:51;;;;;;;17.20;3.47;;;;;;;3.99;73.61;102304.47;5030531;28;20049;-81
2023/02/06 03:12:31;;;;;;;18.08;4.03;;;;;;;4.01;73.33;102300.19;5023272;28;20076;-82
2023/02/06 03:15:04;;;;;;;22.15;3.70;;;;;;;4.03;73.58;102306.28;5012523;28;20053;-83
2023/02/06 03:17:36;;;;;;;21.33;3.63;;;;;;;4.02;73.81;102308.03;5030541;28;20136;-81
2023/02/06 03:20:05;;;;;;;15.35;3.15;;;;;;;4.04;73.66;102298.47;5030584;28;20054;-82
2023/02/06 03:22:34;;;;;;;18.98;4.15;;;;;;;4.08;73.85;102301.13;5030310;28;20048;-82
2023/02/06 03:25:04;;;;;;;17.90;3.90;;;;;;;4.08;73.52;102285.47;5030169;28;20136;-82
2023/02/06 03:27:32;;;;;;;22.48;4.63;;;;;;;4.12;73.91;102289.88;5030414;28;20064;-81
2023/02/06 03:30:02;;;;;;;18.80;3.75;;;;;;;4.12;73.77;102292.47;5030379;28;20077;-82
2023/02/06 03:32:34;;;;;;;23.08;3.75;;;;;;;4.12;73.53;102287.25;5030255;28;20140;-82
2023/02/06 03:35:06;;;;;;;19.60;4.47;;;;;;;4.14;73.59;102288.16;5030308;28;20057;-82
2023/02/06 03:37:35;;;;;;;16.75;3.85;;;;;;;4.16;73.68;102286.44;5012627;28;20049;-82
2023/02/06 03:40:04;;;;;;;25.77;3.92;;;;;;;4.16;73.77;102289.91;5030232;28;20077;-82
2023/02/06 03:42:34;;;;;;;9.68;3.03;;;;;;;4.17;73.36;102290.78;5030750;28;20088;-81
2023/02/06 03:45:06;;;;;;;15.02;4.03;;;;;;;4.16;73.66;102284.69;5033820;28;20054;-82
2023/02/06 03:47:36;;;;;;;23.35;4.55;;;;;;;4.18;73.59;102289.94;5016173;28;20053;-81
2023/02/06 03:50:05;;;;;;;20.15;3.78;;;;;;;4.19;73.55;102296.91;5033638;28;20395;-81
2023/02/06 03:52:38;;;;;;;45.22;3.75;;;;;;;4.19;73.85;102288.22;5033657;28;20049;-82
2023/02/06 03:55:12;;;;;;;25.60;3.90;;;;;;;4.18;73.63;102297.75;5033912;28;20088;-83
2023/02/06 03:57:43;;;;;;;24.40;4.50;;;;;;;4.22;73.79;102294.31;5033661;28;20049;-81
2023/02/06 04:00:10;;;;;;;24.17;4.07;;;;;;;4.22;73.88;102294.31;5033709;28;20417;-82
2023/02/06 04:02:38;;;;;;;27.20;4.53;;;;;;;4.24;73.83;102299.56;5033717;28;20144;-81
2023/02/06 04:05:05;;;;;;;35.53;4.40;;;;;;;4.25;73.93;102302.19;5033645;28;20119;-82
2023/02/06 04:07:35;;;;;;;61.40;5.50;;;;;;;4.28;73.93;102303.94;5016062;28;20053;-81
2023/02/06 04:10:02;;;;;;;22.05;5.38;;;;;;;4.28;74.02;102299.63;5033169;28;20064;-81
2023/02/06 04:12:28;;;;;;;58.00;7.13;;;;;;;4.30;73.94;102297.88;5033709;28;20452;-81
2023/02/06 04:14:55;;;;;;;98.72;8.07;;;;;;;4.32;73.82;102308.34;5033134;28;20487;-82
2023/02/06 04:17:21;;;;;;;70.20;7.05;;;;;;;4.35;74.17;102317.91;5015749;28;20498;-82
2023/02/06 04:20:08;;;;;;;68.57;7.47;;;;;;;4.37;73.87;102326.66;5033073;28;20490;-81
2023/02/06 04:22:35;;;;;;;18.08;5.78;;;;;;;4.38;73.97;102326.63;5033402;28;20081;-82
2023/02/06 04:25:02;;;;;;;19.58;5.78;;;;;;;4.40;74.37;102324.06;5033013;28;20049;-83
2023/02/06 04:27:28;;;;;;;77.32;6.13;;;;;;;4.43;74.49;102321.47;5033155;28;20093;-82
2023/02/06 04:29:55;;;;;;;25.05;5.45;;;;;;;4.47;74.49;102327.59;5033146;28;20057;-81
2023/02/06 04:32:21;;;;;;;23.98;5.18;;;;;;;4.48;74.29;102330.22;5033327;28;20048;-81
2023/02/06 04:34:48;;;;;;;64.63;6.68;;;;;;;4.50;74.46;102328.53;5033123;28;20414;-81
2023/02/06 04:37:14;;;;;;;41.13;6.05;;;;;;;4.52;74.35;102326.78;5015278;28;20041;-81
2023/02/06 04:39:41;;;;;;;51.28;7.63;;;;;;;4.54;74.25;102311.16;5032928;28;20132;-81
2023/02/06 04:42:07;;;;;;;16.45;5.20;;;;;;;4.55;74.26;102321.59;5032904;28;20478;-81
2023/02/06 04:44:37;;;;;;;92.68;8.48;;;;;;;4.56;74.45;102318.13;5032645;28;20516;-82
2023/02/06 04:47:04;;;;;;;12.23;5.65;;;;;;;4.60;74.45;102316.41;5032942;28;20057;-81
2023/02/06 04:49:30;;;;;;;46.83;6.20;;;;;;;4.62;74.41;102316.44;5032993;28;20045;-82
2023/02/06 04:51:57;;;;;;;33.47;6.63;;;;;;;4.62;74.23;102312.09;5032874;28;20049;-80
2023/02/06 04:54:23;;;;;;;60.70;8.35;;;;;;;4.65;74.17;102312.13;5032494;28;20050;-81
2023/02/06 04:56:50;;;;;;;28.00;8.02;;;;;;;4.67;74.21;102312.13;5015043;28;20409;-81
2023/02/06 04:59:16;;;;;;;34.67;8.68;;;;;;;4.68;74.19;102306.06;5032575;28;20499;-81
2023/02/06 05:01:43;;;;;;;92.10;10.45;;;;;;;4.70;74.15;102304.34;5032600;28;20140;-81
2023/02/06 05:04:10;;;;;;;90.97;9.90;;;;;;;4.71;74.11;102303.47;5015029;28;20046;-82
2023/02/06 05:06:36;;;;;;;105.55;9.63;;;;;;;4.73;73.85;102306.09;5032181;28;20093;-82
2023/02/06 05:11:38;;;;;;;90.57;8.90;;;;;;;4.74;73.72;102295.69;5007236;28;20442;-81
2023/02/06 05:14:04;;;;;;;79.45;8.95;;;;;;;4.73;73.60;102286.09;5000084;28;20068;-82
2023/02/06 05:16:31;;;;;;;62.00;7.05;;;;;;;4.72;73.25;102294.81;5012253;28;20104;-81
2023/02/06 05:18:58;;;;;;;66.85;6.80;;;;;;;4.71;73.34;102282.59;5012520;28;20562;-81
2023/02/06 05:21:25;;;;;;;59.55;7.15;;;;;;;4.69;73.06;102279.13;5012311;28;20161;-82
2023/02/06 05:23:52;;;;;;;59.63;5.85;;;;;;;4.66;73.00;102277.34;4991482;28;20411;-82
2023/02/06 05:26:19;;;;;;;32.25;4.50;;;;;;;4.65;73.07;102272.13;5009663;28;20046;-82
2023/02/06 05:28:45;;;;;;;47.65;5.32;;;;;;;4.62;73.16;102264.25;5012312;28;20081;-82
2023/02/06 05:31:18;;;;;;;50.47;4.72;;;;;;;4.59;72.91;102265.09;5012289;28;20090;-82
2023/02/06 05:33:47;;;;;;;31.63;4.70;;;;;;;4.56;72.86;102263.34;5012226;28;20144;-83
2023/02/06 05:36:18;;;;;;;49.65;3.92;;;;;;;4.53;72.44;102265.94;5001475;28;20874;-82
2023/02/06 05:38:44;;;;;;;31.10;4.75;;;;;;;4.50;72.33;102270.25;5002033;28;20141;-82
2023/02/06 05:41:11;;;;;;;88.03;6.88;;;;;;;4.43;72.11;102271.94;5004411;28;20510;-83
2023/02/06 05:43:37;;;;;;;30.42;4.75;;;;;;;4.39;72.39;102273.66;4993574;28;20058;-82
2023/02/06 05:46:04;;;;;;;15.32;3.80;;;;;;;4.35;72.41;102273.59;5003177;28;20056;-82
2023/02/06 05:48:33;;;;;;;14.07;3.80;;;;;;;4.31;72.50;102270.09;5003466;28;20046;-82
2023/02/06 05:51:00;;;;;;;14.00;3.58;;;;;;;4.27;72.52;102271.75;5011752;28;20132;-82
2023/02/06 05:53:26;;;;;;;11.18;2.63;;;;;;;4.26;72.68;102274.38;5011116;28;20065;-82
2023/02/06 05:55:53;;;;;;;27.25;3.30;;;;;;;4.24;72.87;102276.09;4992227;28;20085;-82
2023/02/06 05:58:20;;;;;;;33.67;3.75;;;;;;;4.22;72.83;102273.47;4990922;28;20054;-82
2023/02/06 06:00:46;;;;;;;19.15;3.00;;;;;;;4.21;73.12;102279.53;4992107;28;20046;-82
2023/02/06 06:03:13;;;;;;;57.63;4.93;;;;;;;4.21;72.62;102281.25;4992001;28;20619;-82
2023/02/06 06:05:39;;;;;;;48.80;4.65;;;;;;;4.17;72.76;102278.66;4991349;28;20046;-82
2023/02/06 06:08:06;;;;;;;48.53;4.63;;;;;;;4.16;73.04;102268.19;4991744;28;20057;-82
2023/02/06 06:10:32;;;;;;;49.78;5.18;;;;;;;4.14;72.94;102281.22;4998568;28;20052;-83
2023/02/06 06:12:59;;;;;;;34.00;4.35;;;;;;;4.15;73.07;102276.88;4991689;28;20042;-81
2023/02/06 06:15:25;;;;;;;61.38;4.95;;;;;;;4.14;73.31;102267.28;4993059;28;20125;-84
2023/02/06 06:17:52;;;;;;;33.22;4.20;;;;;;;4.13;73.41;102262.94;5002892;28;20404;-83
2023/02/06 06:20:18;;;;;;;17.27;3.10;;;;;;;4.15;73.59;102279.50;5011426;28;20061;-83
2023/02/06 06:22:45;;;;;;;25.40;2.97;;;;;;;4.17;73.81;102275.16;5011535;28;20042;-83
2023/02/06 06:25:11;;;;;;;41.80;4.20;;;;;;;4.20;74.11;102274.31;5008062;28;20132;-82
2023/02/06 06:27:38;;;;;;;44.33;4.88;;;;;;;4.22;74.26;102278.66;4982243;28;20056;-85
2023/02/06 06:30:05;;;;;;;21.77;3.85;;;;;;;4.25;74.20;102283.03;4991874;28;20058;-83
2023/02/06 06:32:31;;;;;;;14.63;3.95;;;;;;;4.28;74.71;102280.47;4990747;28;20056;-85
2023/02/06 06:34:58;;;;;;;39.28;4.85;;;;;;;4.33;74.50;102286.59;4989603;28;20050;-83
2023/02/06 06:37:24;;;;;;;15.90;4.60;;;;;;;4.37;74.71;102277.09;4995018;28;20125;-86
2023/02/06 06:39:51;;;;;;;13.80;5.55;;;;;;;4.41;74.59;102282.34;5007362;28;20504;-83
2023/02/06 06:42:17;;;;;;;16.52;4.80;;;;;;;4.46;74.84;102277.19;4991302;28;20050;-86
2023/02/06 06:44:44;;;;;;;21.40;5.10;;;;;;;4.51;74.91;102267.66;5000803;28;20057;-83
2023/02/06 06:47:10;;;;;;;20.27;4.85;;;;;;;4.56;74.67;102263.34;5004534;28;20049;-84
2023/02/06 06:49:37;;;;;;;13.13;3.67;;;;;;;4.61;74.80;102275.56;5011228;28;20050;-83
2023/02/06 06:52:04;;;;;;;13.00;4.30;;;;;;;4.66;74.94;102274.75;5010958;28;20065;-85
2023/02/06 06:54:38;;;;;;;11.13;3.55;;;;;;;4.71;74.78;102266.94;4993818;28;20137;-83
2023/02/06 06:57:05;;;;;;;31.88;3.92;;;;;;;4.75;74.78;102267.84;5010801;28;20062;-83
2023/02/06 06:59:31;;;;;;;12.45;4.32;;;;;;;4.78;74.71;102262.66;5010902;28;20050;-84
2023/02/06 07:01:58;;;;;;;16.92;4.07;;;;;;;4.82;74.65;102265.31;5004180;28;20512;-84
2023/02/06 07:04:28;;;;;;;21.42;4.53;;;;;;;4.86;74.59;102265.34;4995094;28;20049;-84
2023/02/06 07:06:54;;;;;;;15.88;4.72;;;;;;;4.88;74.78;102268.81;4999192;28;20057;-84
2023/02/06 07:09:21;;;;;;;14.93;3.75;;;;;;;4.90;74.51;102261.88;5005213;28;20054;-84
2023/02/06 07:11:47;;;;;;;25.05;4.20;;;;;;;4.94;74.32;102266.28;5004490;28;20125;-84
2023/02/06 07:14:14;;;;;;;14.80;3.72;;;;;;;4.95;74.54;102268.91;5005456;28;20049;-79
2023/02/06 07:16:41;;;;;;;17.67;3.28;;;;;;;4.97;74.50;102268.03;4994147;28;20058;-81
2023/02/06 07:19:08;;;;;;;16.17;3.85;;;;;;;4.99;74.52;102269.78;4995595;28;20534;-79
2023/02/06 07:21:35;;;;;;;13.95;3.40;;;;;;;5.01;74.43;102269.78;4996191;28;20058;-84
2023/02/06 07:24:02;;;;;;;16.65;3.92;;;;;;;5.03;74.62;102274.16;4999184;28;20046;-81
2023/02/06 07:26:29;;;;;;;20.00;4.15;;;;;;;5.05;74.42;102272.41;5012986;28;20046;-80
2023/02/06 07:28:55;;;;;;;13.77;3.60;;;;;;;5.08;74.53;102279.41;5002569;28;20050;-81
2023/02/06 07:31:25;;;;;;;10.38;3.08;;;;;;;5.08;74.29;102274.19;4995661;28;20426;-79
2023/02/06 07:33:52;;;;;;;9.73;3.10;;;;;;;5.11;74.46;102273.31;5001060;28;20057;-81
2023/02/06 07:36:18;;;;;;;9.98;3.30;;;;;;;5.14;74.48;102271.63;5011917;28;20050;-79
2023/02/06 07:38:45;;;;;;;15.30;3.08;;;;;;;5.16;74.24;102267.28;5014365;28;20050;-78
2023/02/06 07:41:13;;;;;;;12.75;3.42;;;;;;;5.18;74.55;102252.50;5014247;28;20491;-79
2023/02/06 07:43:39;;;;;;;11.40;3.50;;;;;;;5.20;74.36;102258.59;5014134;28;20053;-79
2023/02/06 07:46:06;;;;;;;11.52;3.20;;;;;;;5.22;74.45;102259.50;5014193;28;20140;-80
2023/02/06 07:48:33;;;;;;;14.57;3.20;;;;;;;5.24;74.53;102267.34;5014395;28;20060;-80
2023/02/06 07:51:07;;;;;;;10.93;3.70;;;;;;;5.25;74.23;102271.69;5014244;28;20054;-80
2023/02/06 07:53:35;;;;;;;11.63;2.50;;;;;;;5.30;74.45;102269.97;5014107;28;20053;-79
2023/02/06 07:56:07;;;;;;;14.05;3.50;;;;;;;5.33;74.57;102269.13;5013904;28;20416;-80
2023/02/06 07:58:34;;;;;;;11.95;3.10;;;;;;;5.36;74.69;102266.53;5014345;28;20050;-79
2023/02/06 08:01:04;;;;;;;14.10;3.33;;;;;;;5.38;74.25;102272.63;5014024;28;20069;-80
2023/02/06 08:03:32;;;;;;;15.00;3.88;;;;;;;5.41;74.75;102266.53;5014073;28;20058;-81
2023/02/06 08:05:59;;;;;;;12.95;2.97;;;;;;;5.46;74.60;102265.69;5013912;28;20073;-80
2023/02/06 08:08:25;;;;;;;17.45;3.67;;;;;;;5.49;74.85;102270.06;5014039;28;20497;-80
2023/02/06 08:10:52;;;;;;;14.07;3.40;;;;;;;5.52;74.70;102264.84;5012699;28;20407;-80
2023/02/06 08:13:18;;;;;;;15.52;3.25;;;;;;;5.57;74.72;102257.06;5013800;28;20586;-79
2023/02/06 08:15:45;;;;;;;12.02;3.05;;;;;;;5.60;74.65;102260.53;5013623;28;20503;-79
2023/02/06 08:18:11;;;;;;;10.35;3.25;;;;;;;5.64;74.63;102266.66;5012218;28;20087;-80
2023/02/06 08:20:38;;;;;;;14.70;3.20;;;;;;;5.69;74.75;102274.53;5013432;28;20494;-80
2023/02/06 08:23:06;;;;;;;23.52;3.30;;;;;;;5.71;75.06;102273.66;5013434;28;20457;-79
2023/02/06 08:25:32;;;;;;;14.40;3.08;;;;;;;5.76;74.59;102284.16;5013547;28;20205;-78
2023/02/06 08:28:00;;;;;;;16.65;3.42;;;;;;;5.81;74.79;102287.66;4995623;28;20811;-80
2023/02/06 08:30:26;;;;;;;14.15;3.13;;;;;;;5.86;74.80;102290.25;5013293;28;20053;-81
2023/02/06 08:32:53;;;;;;;14.82;3.25;;;;;;;5.91;74.79;102285.91;4996008;28;20082;-79
2023/02/06 08:35:19;;;;;;;20.63;4.25;;;;;;;5.95;74.68;102287.66;5013104;28;20453;-79
2023/02/06 08:37:46;;;;;;;17.38;4.13;;;;;;;6.00;74.85;102285.97;5013240;28;20077;-79
2023/02/06 08:40:12;;;;;;;14.85;3.38;;;;;;;6.05;75.09;102293.00;5013439;28;20046;-79
2023/02/06 08:42:39;;;;;;;11.85;3.35;;;;;;;6.10;74.80;102296.47;5013044;28;20502;-82
2023/02/06 08:45:06;;;;;;;15.10;3.20;;;;;;;6.15;74.89;102302.59;5011814;28;20506;-79
2023/02/06 08:47:33;;;;;;;15.77;3.25;;;;;;;6.21;74.88;102301.75;5012942;28;20046;-80
2023/02/06 08:49:59;;;;;;;16.02;3.45;;;;;;;6.25;74.75;102293.03;5012958;28;20065;-82
2023/02/06 08:52:28;;;;;;;13.15;3.40;;;;;;;6.30;75.05;102288.69;5013049;28;20049;-79
2023/02/06 08:54:55;;;;;;;14.63;3.30;;;;;;;6.34;74.96;102298.28;5011411;28;20396;-79
2023/02/06 08:57:21;;;;;;;14.23;3.50;;;;;;;6.39;75.04;102291.31;5011737;28;20053;-81
2023/02/06 08:59:48;;;;;;;17.20;3.22;;;;;;;6.44;74.61;102290.44;5012702;28;20041;-80
2023/02/06 09:02:15;;;;;;;22.13;3.50;;;;;;;6.50;74.87;102295.66;5012705;28;20137;-80
2023/02/06 09:04:42;;;;;;;18.17;3.10;;;;;;;6.55;74.38;102299.19;5012686;28;20850;-81
2023/02/06 09:07:08;;;;;;;18.20;4.35;;;;;;;6.60;74.59;102296.56;5012907;28;20050;-81
2023/02/06 09:09:35;;;;;;;17.88;3.42;;;;;;;6.63;74.66;102307.94;5012958;28;20100;-79
2023/02/06 09:12:02;;;;;;;16.80;3.95;;;;;;;6.68;74.61;102304.41;5012753;28;20054;-78
2023/02/06 09:14:30;;;;;;;22.35;4.65;;;;;;;6.70;74.47;102311.41;5012442;28;20050;-79
2023/02/06 09:16:57;;;;;;;21.23;5.35;;;;;;;6.74;74.55;102302.69;5012321;28;20136;-78
2023/02/06 09:19:24;;;;;;;19.77;4.90;;;;;;;6.78;74.08;102304.41;5012373;28;20053;-80
2023/02/06 09:21:51;;;;;;;18.65;4.70;;;;;;;6.82;74.27;102300.06;4994984;28;20083;-80
2023/02/06 09:24:18;;;;;;;18.67;4.60;;;;;;;6.85;74.08;102300.06;5011348;28;20049;-80
2023/02/06 09:26:44;;;;;;;19.48;4.70;;;;;;;6.88;74.63;102307.91;5012142;28;20052;-78
2023/02/06 09:29:27;;;;;;;20.17;4.75;;;;;;;6.93;73.97;102304.41;5012640;28;20493;-81
2023/02/06 09:31:56;;;;;;;16.83;3.97;;;;;;;6.94;73.79;102304.41;5010857;28;20490;-79
2023/02/06 09:34:24;;;;;;;18.65;4.20;;;;;;;6.96;73.67;102307.03;4994827;28;20092;-80
2023/02/06 09:36:53;;;;;;;11.80;3.70;;;;;;;6.97;74.00;102301.81;5012002;28;20578;-78
2023/02/06 09:39:19;;;;;;;15.77;3.70;;;;;;;6.99;73.95;102309.66;5012048;28;20053;-79
2023/02/06 09:41:51;;;;;;;21.27;4.18;;;;;;;6.98;73.54;102297.41;5011345;28;20049;-80
2023/02/06 09:44:20;;;;;;;13.15;3.85;;;;;;;7.00;73.75;102298.31;5011776;28;20495;-80
2023/02/06 09:46:52;;;;;;;18.45;5.35;;;;;;;7.03;74.12;102300.94;5011762;28;20061;-80
2023/02/06 09:49:34;;;;;;;18.92;4.32;;;;;;;7.02;73.45;102300.06;5012152;28;20061;-81
2023/02/06 09:52:09;;;;;;;20.25;5.00;;;;;;;7.07;73.16;102297.44;5010575;28;20046;-80
2023/02/06 09:54:52;;;;;;;10.85;3.88;;;;;;;7.07;73.33;102297.44;5011812;28;20049;-78
2023/02/06 09:57:41;;;;;;;10.95;3.58;;;;;;;7.09;73.03;102300.91;5011736;28;20050;-79
2023/02/06 10:00:14;;;;;;;13.30;4.18;;;;;;;7.15;73.52;102305.28;5011701;28;20064;-78
2023/02/06 10:03:18;;;;;;;22.02;4.63;;;;;;;7.12;72.66;102300.03;5011536;28;20053;-79
2023/02/06 10:05:48;;;;;;;;;;;;;;;7.16;72.97;102297.44;5012316;28;20056;-79
2023/02/06 10:08:15;;;;;;;19.67;4.40;;;;;;;7.20;73.68;102297.41;5011839;28;19968;-80
2023/02/06 10:10:51;;;;;;;19.02;5.50;;;;;;;7.17;73.17;102307.03;4994006;28;20054;-80
2023/02/06 10:13:56;;;;;;;20.65;5.75;;;;;;;7.17;73.43;102299.16;5011575;28;20057;-80
2023/02/06 10:16:39;;;;;;;21.80;6.30;;;;;;;7.19;72.88;102300.91;4967689;28;20586;-80
2023/02/06 10:19:35;;;;;;;20.30;5.70;;;;;;;7.20;73.10;102303.53;5011441;28;20088;-79
2023/02/06 10:22:43;;;;;;;13.90;5.03;;;;;;;7.23;73.23;102302.63;4969624;28;20815;-79
2023/02/06 10:25:14;;;;;;;19.92;5.95;;;;;;;7.28;73.69;102300.88;5011427;28;20136;-80
2023/02/06 10:27:43;;;;;;;27.75;6.05;;;;;;;7.30;73.88;102299.16;5011172;28;20136;-79
2023/02/06 10:30:21;;;;;;;24.13;6.03;;;;;;;7.29;73.17;102290.41;5011144;28;20042;-79
2023/02/06 10:32:58;;;;;;;18.33;6.03;;;;;;;7.30;73.26;102283.41;5011588;28;20046;-77
2023/02/06 10:35:36;;;;;;;26.30;6.38;;;;;;;7.32;73.34;102272.94;5011260;28;20510;-81
2023/02/06 10:38:22;;;;;;;28.17;6.00;;;;;;;7.38;74.22;102267.66;5011141;28;20064;-79
2023/02/06 10:40:57;;;;;;;24.58;5.85;;;;;;;7.40;73.87;102271.19;5011377;28;20054;-78
2023/02/06 10:43:52;;;;;;;19.80;5.57;;;;;;;7.43;74.28;102274.66;5011248;28;20046;-79
2023/02/06 10:46:44;;;;;;;18.35;5.63;;;;;;;7.48;73.59;102266.75;5010484;28;20068;-78
2023/02/06 10:49:20;;;;;;;29.35;6.03;;;;;;;7.55;74.01;102276.34;5010902;28;20045;-81
2023/02/06 10:51:55;;;;;;;18.05;5.75;;;;;;;7.59;74.20;102261.47;5011037;28;20066;-78
2023/02/06 10:54:35;;;;;;;28.55;5.75;;;;;;;7.61;73.76;102258.84;5010884;28;20048;-78
2023/02/06 10:57:03;;;;;;;18.60;5.72;;;;;;;7.67;74.74;102253.59;4993180;28;20050;-78
2023/02/06 10:59:34;;;;;;;19.98;6.15;;;;;;;7.68;74.35;102248.34;5010827;28;20139;-82
2023/02/06 11:02:06;;;;;;;21.75;6.10;;;;;;;7.73;73.76;102244.84;5010832;28;20053;-80
2023/02/06 11:04:38;;;;;;;21.35;6.88;;;;;;;7.77;73.97;102236.03;5010668;28;20046;-79
2023/02/06 11:07:16;;;;;;;25.27;6.32;;;;;;;7.80;73.82;102241.28;5009294;28;20068;-78
2023/02/06 11:09:44;;;;;;;26.58;6.68;;;;;;;7.87;74.38;102253.50;5208695;23;20042;-78
2023/02/06 11:12:23;;;;;;;22.00;6.88;;;;;;;7.86;73.62;102243.91;5010608;28;20073;-80
2023/02/06 11:14:53;;;;;;;21.23;6.43;;;;;;;7.90;74.00;102250.88;4992642;28;20104;-78
2023/02/06 11:17:22;;;;;;;22.17;6.90;;;;;;;7.93;73.89;102252.59;4993005;28;20112;-78
2023/02/06 11:19:51;;;;;;;22.58;6.32;;;;;;;7.93;73.78;102250.81;5010415;28;20050;-78
2023/02/06 11:22:29;;;;;;;19.73;6.00;;;;;;;7.90;73.03;102257.84;5010590;28;20053;-78
2023/02/06 11:25:30;;;;;;;26.17;6.50;;;;;;;7.90;73.64;102260.47;5010225;28;20141;-81
2023/02/06 11:27:58;;;;;;;18.50;6.78;;;;;;;7.95;74.05;102261.31;5010022;28;20058;-78
2023/02/06 11:30:35;;;;;;;19.20;6.47;;;;;;;7.92;73.63;102262.19;5010537;28;20084;-78
2023/02/06 11:33:17;;;;;;;28.90;6.20;;;;;;;7.95;73.78;102253.44;5010543;28;20054;-79
2023/02/06 11:35:57;;;;;;;19.90;6.95;;;;;;;7.98;73.96;102247.31;5010511;28;20046;-79
2023/02/06 11:38:28;;;;;;;22.88;7.32;;;;;;;8.02;74.25;102243.78;4992874;28;20050;-79
2023/02/06 11:41:15;;;;;;;21.25;6.80;;;;;;;8.03;73.75;102241.16;5010484;28;20056;-81
2023/02/06 11:43:41;;;;;;;37.05;7.75;;;;;;;8.11;74.36;102240.25;5010004;28;20050;-81